createdAt,value
2019-04-28T00:01:07.082Z,11.89
2019-04-28T00:03:39.073Z,11.87
2019-04-28T00:06:11.274Z,11.87
2019-04-28T00:08:43.244Z,11.82
2019-04-28T00:11:15.389Z,11.80
2019-04-28T00:13:47.385Z,11.80
2019-04-28T00:16:21.182Z,11.79
2019-04-28T00:18:53.200Z,11.83
2019-04-28T00:21:32.050Z,11.75
2019-04-28T00:24:28.670Z,11.73
2019-04-28T00:27:05.258Z,11.69
2019-04-28T00:29:41.172Z,11.64
2019-04-28T00:32:11.307Z,11.63
2019-04-28T00:34:43.441Z,11.63
2019-04-28T00:37:28.924Z,11.64
2019-04-28T00:40:01.405Z,11.64
2019-04-28T00:42:33.458Z,11.66
2019-04-28T00:45:06.821Z,11.68
2019-04-28T00:47:38.813Z,11.71
2019-04-28T00:50:11.753Z,11.71
2019-04-28T00:52:43.880Z,11.74
2019-04-28T00:55:15.931Z,11.74
2019-04-28T00:57:47.926Z,11.77
2019-04-28T01:00:23.157Z,11.82
2019-04-28T01:02:55.224Z,11.84
2019-04-28T01:05:27.324Z,11.86
2019-04-28T01:08:01.004Z,11.89
2019-04-28T01:10:33.168Z,11.87
2019-04-28T01:13:05.151Z,11.87
2019-04-28T01:15:49.752Z,11.86
2019-04-28T01:18:30.390Z,11.89
2019-04-28T01:21:02.339Z,11.88
2019-04-28T01:23:34.330Z,11.86
2019-04-28T01:26:06.350Z,11.86
2019-04-28T01:28:39.800Z,11.88
2019-04-28T01:31:23.368Z,11.86
2019-04-28T01:34:17.162Z,11.88
2019-04-28T01:36:49.587Z,11.85
2019-04-28T01:39:22.928Z,11.83
2019-04-28T01:41:54.915Z,11.82
2019-04-28T01:44:26.908Z,11.83
2019-04-28T01:47:00.937Z,11.83
2019-04-28T01:49:32.617Z,11.81
2019-04-28T01:52:04.936Z,11.79
2019-04-28T01:54:36.918Z,11.82
2019-04-28T01:57:10.156Z,11.80
2019-04-28T01:59:42.360Z,11.81
2019-04-28T02:02:14.469Z,11.80
2019-04-28T02:04:46.444Z,11.82
2019-04-28T02:07:20.448Z,11.80
2019-04-28T02:09:52.128Z,11.81
2019-04-28T02:12:24.106Z,11.79
2019-04-28T02:14:56.085Z,11.78
2019-04-28T02:17:28.088Z,11.79
2019-04-28T02:20:00.854Z,11.79
2019-04-28T02:22:40.005Z,11.76
2019-04-28T02:25:12.431Z,11.77
2019-04-28T02:27:44.457Z,11.75
2019-04-28T02:30:16.559Z,11.67
2019-04-28T02:32:51.556Z,11.65
2019-04-28T02:35:22.204Z,11.64
2019-04-28T02:37:54.161Z,11.63
2019-04-28T02:40:26.145Z,11.61
2019-04-28T02:42:58.112Z,11.58
2019-04-28T02:45:31.604Z,11.58
2019-04-28T02:48:05.502Z,11.59
2019-04-28T02:50:51.577Z,11.61
2019-04-28T02:53:33.165Z,11.60
2019-04-28T02:56:02.685Z,11.57
2019-04-28T02:58:34.654Z,11.57
2019-04-28T03:01:18.480Z,11.55
2019-04-28T03:03:41.022Z,11.53
2019-04-28T03:06:13.167Z,11.51
2019-04-28T03:08:45.153Z,11.49
2019-04-28T03:11:17.121Z,11.51
2019-04-28T03:13:51.112Z,11.50
2019-04-28T03:16:23.124Z,11.50
2019-04-28T03:18:55.499Z,11.52
2019-04-28T03:21:27.447Z,11.47
2019-04-28T03:24:01.260Z,11.42
2019-04-28T03:26:41.374Z,11.43
2019-04-28T03:29:21.856Z,11.40
2019-04-28T03:32:32.734Z,11.40
2019-04-28T03:34:53.763Z,11.39
2019-04-28T03:37:24.540Z,11.39
2019-04-28T03:39:56.791Z,11.40
2019-04-28T03:42:31.168Z,11.41
2019-04-28T03:45:04.054Z,11.41
2019-04-28T03:47:36.009Z,11.41
2019-04-28T03:50:10.459Z,11.41
2019-04-28T03:52:42.014Z,11.40
2019-04-28T03:55:13.978Z,11.42
2019-04-28T03:57:45.972Z,11.46
2019-04-28T04:00:18.271Z,11.48
2019-04-28T04:02:50.842Z,11.51
2019-04-28T04:05:22.951Z,11.54
2019-04-28T04:07:54.946Z,11.54
2019-04-28T04:10:50.279Z,11.57
2019-04-28T04:13:41.769Z,11.56
2019-04-28T04:16:31.522Z,11.56
2019-04-28T04:19:04.246Z,11.56
2019-04-28T04:21:36.249Z,11.59
2019-04-28T04:24:10.671Z,11.58
2019-04-28T04:26:41.928Z,11.63
2019-04-28T04:29:13.930Z,11.62
2019-04-28T04:31:45.958Z,11.63
2019-04-28T04:34:20.076Z,11.65
2019-04-28T04:36:51.677Z,11.68
2019-04-28T04:39:23.652Z,11.69
2019-04-28T04:41:55.662Z,11.71
2019-04-28T04:44:27.651Z,11.74
2019-04-28T04:47:01.011Z,11.79
2019-04-28T04:49:33.211Z,11.82
2019-04-28T04:52:05.180Z,11.86
2019-04-28T04:54:37.188Z,11.87
2019-04-28T04:57:11.108Z,11.93
2019-04-28T04:59:42.942Z,11.94
2019-04-28T05:02:33.742Z,11.94
2019-04-28T05:05:30.406Z,11.93
2019-04-28T05:08:02.403Z,11.93
2019-04-28T05:10:34.382Z,11.95
2019-04-28T05:13:06.421Z,11.95
2019-04-28T05:15:40.066Z,12.02
2019-04-28T05:18:12.137Z,12.02
2019-04-28T05:20:44.295Z,12.05
2019-04-28T05:23:30.619Z,12.10
2019-04-28T05:26:07.974Z,12.13
2019-04-28T05:28:36.955Z,12.14
2019-04-28T05:31:13.530Z,12.15
2019-04-28T05:33:44.093Z,12.17
2019-04-28T05:36:16.055Z,12.21
2019-04-28T05:38:49.650Z,12.25
2019-04-28T05:41:21.951Z,12.31
2019-04-28T05:43:53.952Z,12.37
2019-04-28T05:46:25.951Z,12.47
2019-04-28T05:49:07.140Z,12.54
2019-04-28T05:51:40.530Z,12.59
2019-04-28T05:54:31.505Z,12.71
2019-04-28T05:57:21.488Z,12.77
2019-04-28T06:00:01.180Z,12.82
2019-04-28T06:02:37.285Z,12.89
2019-04-28T06:05:10.180Z,12.96
2019-04-28T06:08:07.452Z,13.01
2019-04-28T06:10:40.107Z,13.06
2019-04-28T06:13:12.093Z,13.12
2019-04-28T06:15:44.078Z,13.16
2019-04-28T06:18:16.050Z,13.19
2019-04-28T06:20:49.681Z,13.25
2019-04-28T06:23:21.931Z,13.20
2019-04-28T06:25:53.922Z,13.21
2019-04-28T06:28:25.892Z,13.26
2019-04-28T06:30:57.876Z,13.35
2019-04-28T06:33:29.858Z,13.38
2019-04-28T06:36:01.837Z,13.43
2019-04-28T06:38:33.821Z,13.39
2019-04-28T06:41:05.853Z,13.34
2019-04-28T06:43:37.862Z,13.41
2019-04-28T06:46:09.820Z,13.39
2019-04-28T06:48:41.803Z,13.34
2019-04-28T06:51:13.882Z,13.38
2019-04-28T06:53:45.913Z,13.36
2019-04-28T06:56:17.905Z,13.39
2019-04-28T06:58:58.918Z,13.32
2019-04-28T07:01:23.962Z,13.40
2019-04-28T07:03:55.926Z,13.35
2019-04-28T07:06:27.956Z,13.44
2019-04-28T07:09:00.336Z,13.42
2019-04-28T07:11:32.309Z,13.48
2019-04-28T07:14:04.418Z,13.65
2019-04-28T07:16:36.473Z,13.74
2019-04-28T07:19:08.483Z,13.85
2019-04-28T07:21:49.672Z,13.86
2019-04-28T07:24:21.692Z,13.94
2019-04-28T07:26:53.680Z,13.94
2019-04-28T07:29:25.664Z,14.06
2019-04-28T07:31:57.753Z,14.20
2019-04-28T07:34:30.285Z,14.29
2019-04-28T07:37:02.258Z,14.41
2019-04-28T07:39:34.305Z,14.44
2019-04-28T07:42:06.356Z,14.38
2019-04-28T07:44:38.418Z,14.29
2019-04-28T07:47:10.394Z,14.20
2019-04-28T07:49:42.388Z,14.18
2019-04-28T07:52:36.003Z,14.18
2019-04-28T07:55:08.309Z,14.03
2019-04-28T07:57:40.540Z,13.85
2019-04-28T08:00:15.240Z,13.93
2019-04-28T08:02:47.250Z,13.88
2019-04-28T08:05:19.313Z,13.80
2019-04-28T08:07:51.379Z,13.75
2019-04-28T08:10:23.361Z,13.82
2019-04-28T08:12:55.298Z,13.86
2019-04-28T08:15:27.304Z,13.86
2019-04-28T08:17:59.308Z,13.70
2019-04-28T08:20:31.308Z,13.64
2019-04-28T08:23:04.258Z,13.85
2019-04-28T08:25:36.255Z,14.00
2019-04-28T08:28:08.319Z,14.17
2019-04-28T08:30:40.687Z,14.44
2019-04-28T08:33:40.856Z,14.64
2019-04-28T08:36:12.910Z,14.80
2019-04-28T08:38:44.955Z,14.94
2019-04-28T08:41:16.925Z,15.09
2019-04-28T08:43:48.886Z,15.12
2019-04-28T08:46:21.174Z,15.14
2019-04-28T08:48:53.125Z,15.07
2019-04-28T08:51:25.110Z,15.02
2019-04-28T08:53:57.106Z,15.00
2019-04-28T08:56:29.102Z,15.06
2019-04-28T08:59:01.095Z,15.05
2019-04-28T09:01:33.156Z,14.97
2019-04-28T09:04:15.239Z,14.90
2019-04-28T09:06:38.858Z,15.00
2019-04-28T09:09:15.218Z,14.91
2019-04-28T09:11:47.230Z,14.85
2019-04-28T09:14:19.239Z,14.98
2019-04-28T09:16:51.257Z,15.18
2019-04-28T09:19:23.280Z,15.44
2019-04-28T09:21:55.300Z,15.69
2019-04-28T09:24:27.246Z,15.79
2019-04-28T09:26:59.240Z,15.97
2019-04-28T09:29:31.332Z,16.07
2019-04-28T09:32:03.331Z,15.92
2019-04-28T09:34:35.338Z,15.85
2019-04-28T09:37:07.342Z,15.87
2019-04-28T09:39:56.613Z,16.05
2019-04-28T09:42:51.218Z,16.14
2019-04-28T09:45:25.965Z,16.20
2019-04-28T09:47:57.985Z,16.43
2019-04-28T09:50:30.363Z,16.52
2019-04-28T09:53:02.447Z,16.35
2019-04-28T09:55:34.470Z,16.41
2019-04-28T09:58:06.538Z,16.81
2019-04-28T10:00:40.192Z,17.16
2019-04-28T10:03:12.269Z,17.32
2019-04-28T10:05:44.256Z,17.81
2019-04-28T10:08:16.318Z,18.10
2019-04-28T10:10:48.386Z,18.22
2019-04-28T10:13:20.612Z,18.53
2019-04-28T10:15:52.605Z,18.84
2019-04-28T10:18:24.636Z,18.93
2019-04-28T10:20:56.668Z,18.88
2019-04-28T10:23:28.632Z,18.94
2019-04-28T10:26:01.053Z,18.75
2019-04-28T10:28:33.092Z,18.89
2019-04-28T10:31:06.829Z,19.11
2019-04-28T10:33:40.473Z,19.36
2019-04-28T10:36:12.738Z,19.49
2019-04-28T10:38:46.395Z,19.68
2019-04-28T10:41:25.302Z,20.03
2019-04-28T10:43:57.255Z,20.06
2019-04-28T10:46:29.289Z,20.14
2019-04-28T10:49:01.597Z,20.28
2019-04-28T10:51:33.610Z,20.71
2019-04-28T10:54:05.970Z,21.04
2019-04-28T10:56:37.984Z,21.07
2019-04-28T10:59:10.493Z,20.86
2019-04-28T11:01:42.484Z,20.94
2019-04-28T11:04:32.136Z,21.21
2019-04-28T11:07:04.408Z,21.09
2019-04-28T11:09:42.102Z,20.98
2019-04-28T11:12:19.308Z,20.84
2019-04-28T11:14:51.354Z,20.69
2019-04-28T11:17:24.018Z,20.41
2019-04-28T11:19:55.968Z,20.06
2019-04-28T11:22:27.998Z,20.06
2019-04-28T11:25:00.203Z,19.93
2019-04-28T11:27:32.240Z,19.61
2019-04-28T11:30:04.322Z,19.21
2019-04-28T11:32:37.005Z,18.90
2019-04-28T11:35:37.167Z,18.62
2019-04-28T11:38:09.194Z,18.16
2019-04-28T11:40:41.406Z,17.87
2019-04-28T11:43:13.536Z,17.79
2019-04-28T11:45:45.708Z,17.76
2019-04-28T11:48:19.298Z,17.88
2019-04-28T11:50:51.311Z,18.05
2019-04-28T11:53:23.359Z,17.97
2019-04-28T11:55:55.313Z,17.58
2019-04-28T11:58:27.616Z,17.65
2019-04-28T12:01:00.049Z,18.03
2019-04-28T12:03:32.356Z,18.11
2019-04-28T12:06:04.701Z,17.99
2019-04-28T12:08:37.153Z,17.71
2019-04-28T12:11:31.528Z,17.55
2019-04-28T12:14:14.570Z,17.34
2019-04-28T12:17:04.239Z,17.19
2019-04-28T12:19:41.858Z,16.95
2019-04-28T12:22:14.128Z,16.82
2019-04-28T12:24:46.400Z,16.59
2019-04-28T12:27:19.098Z,16.62
2019-04-28T12:29:51.366Z,16.56
2019-04-28T12:32:23.576Z,16.47
2019-04-28T12:34:55.939Z,16.44
2019-04-28T12:37:27.967Z,16.48
2019-04-28T12:40:00.158Z,16.55
2019-04-28T12:42:34.533Z,16.35
2019-04-28T12:45:07.384Z,16.04
2019-04-28T12:47:40.135Z,15.87
2019-04-28T12:50:21.801Z,15.46
2019-04-28T12:52:54.055Z,15.11
2019-04-28T12:55:26.253Z,14.98
2019-04-28T12:57:58.656Z,14.94
2019-04-28T13:01:01.923Z,14.80
2019-04-28T13:03:40.523Z,14.60
2019-04-28T13:06:15.337Z,14.38
2019-04-28T13:08:47.611Z,14.36
2019-04-28T13:11:20.177Z,14.34
2019-04-28T13:13:52.328Z,14.17
2019-04-28T13:16:26.724Z,14.11
2019-04-28T13:18:59.052Z,13.92
2019-04-28T13:21:31.478Z,14.01
2019-04-28T13:24:03.815Z,14.24
2019-04-28T13:26:36.171Z,14.50
2019-04-28T13:29:08.298Z,14.37
2019-04-28T13:31:40.562Z,14.22
2019-04-28T13:34:14.569Z,13.99
2019-04-28T13:36:46.773Z,13.82
2019-04-28T13:39:25.694Z,13.79
2019-04-28T13:41:57.931Z,13.79
2019-04-28T13:44:51.659Z,13.72
2019-04-28T13:47:23.804Z,13.81
2019-04-28T13:49:59.271Z,13.77
2019-04-28T13:52:31.263Z,13.81
2019-04-28T13:55:25.170Z,13.90
2019-04-28T13:57:59.364Z,13.76
2019-04-28T14:00:53.191Z,13.92
2019-04-28T14:03:33.168Z,13.87
2019-04-28T14:06:08.344Z,13.80
2019-04-28T14:08:40.640Z,13.78
2019-04-28T14:11:12.826Z,14.02
2019-04-28T14:13:45.349Z,14.10
2019-04-28T14:16:17.584Z,13.94
2019-04-28T14:18:49.669Z,13.95
2019-04-28T14:21:21.640Z,13.88
2019-04-28T14:23:53.792Z,13.77
2019-04-28T14:26:25.849Z,13.77
2019-04-28T14:28:57.992Z,13.80
2019-04-28T14:31:30.409Z,13.90
2019-04-28T14:34:02.392Z,13.87
2019-04-28T14:36:42.013Z,13.74
2019-04-28T14:39:10.141Z,13.75
2019-04-28T14:41:42.108Z,13.74
2019-04-28T14:44:14.207Z,13.72
2019-04-28T14:46:46.243Z,13.69
2019-04-28T14:49:18.233Z,13.50
2019-04-28T14:51:50.472Z,13.32
2019-04-28T14:54:22.468Z,13.28
2019-04-28T14:56:54.491Z,13.11
2019-04-28T14:59:26.500Z,13.16
2019-04-28T15:02:13.916Z,13.26
2019-04-28T15:05:07.820Z,13.29
2019-04-28T15:07:59.022Z,13.30
2019-04-28T15:10:48.252Z,13.21
2019-04-28T15:13:22.073Z,13.30
2019-04-28T15:15:54.155Z,13.45
2019-04-28T15:18:26.140Z,13.52
2019-04-28T15:20:58.205Z,13.34
2019-04-28T15:23:30.231Z,13.35
2019-04-28T15:26:02.266Z,13.49
2019-04-28T15:28:34.253Z,13.49
2019-04-28T15:31:06.331Z,13.48
2019-04-28T15:33:38.311Z,13.56
2019-04-28T15:36:10.710Z,13.59
2019-04-28T15:38:42.731Z,13.51
2019-04-28T15:41:21.511Z,13.34
2019-04-28T15:43:48.438Z,13.21
2019-04-28T15:46:20.683Z,13.02
2019-04-28T15:48:52.658Z,12.80
2019-04-28T15:51:24.655Z,12.49
2019-04-28T15:53:56.621Z,12.35
2019-04-28T15:56:37.242Z,12.21
2019-04-28T15:59:10.113Z,12.03
2019-04-28T16:01:42.286Z,12.02
2019-04-28T16:04:14.272Z,11.97
2019-04-28T16:06:46.290Z,11.90
2019-04-28T16:09:18.272Z,11.91
2019-04-28T16:11:50.640Z,11.94
2019-04-28T16:14:22.607Z,11.91
2019-04-28T16:16:54.601Z,11.87
2019-04-28T16:19:26.597Z,11.96
2019-04-28T16:21:58.703Z,11.98
2019-04-28T16:24:31.063Z,11.98
2019-04-28T16:27:03.172Z,11.95
2019-04-28T16:29:35.194Z,11.94
2019-04-28T16:32:09.705Z,11.88
2019-04-28T16:34:40.944Z,11.78
2019-04-28T16:37:12.947Z,11.77
2019-04-28T16:39:44.946Z,11.74
2019-04-28T16:42:35.704Z,11.70
2019-04-28T16:45:09.718Z,11.72
2019-04-28T16:47:41.706Z,11.69
2019-04-28T16:50:13.799Z,11.67
2019-04-28T16:52:45.881Z,11.59
2019-04-28T16:55:21.594Z,11.55
2019-04-28T16:58:13.077Z,11.48
2019-04-28T17:01:06.640Z,11.43
2019-04-28T17:03:38.861Z,11.32
2019-04-28T17:06:11.213Z,11.23
2019-04-28T17:08:44.699Z,11.15
2019-04-28T17:11:17.011Z,11.08
2019-04-28T17:13:49.000Z,11.04
2019-04-28T17:16:21.051Z,11.02
2019-04-28T17:18:53.077Z,10.99
2019-04-28T17:21:25.065Z,10.94
2019-04-28T17:23:57.097Z,10.93
2019-04-28T17:26:29.092Z,10.94
2019-04-28T17:29:01.385Z,10.92
2019-04-28T17:31:33.429Z,10.84
2019-04-28T17:34:05.786Z,10.82
2019-04-28T17:36:37.812Z,10.78
2019-04-28T17:39:19.188Z,10.69
2019-04-28T17:41:51.180Z,10.67
2019-04-28T17:44:23.250Z,10.53
2019-04-28T17:46:55.286Z,10.49
2019-04-28T17:49:37.292Z,10.48
2019-04-28T17:52:10.478Z,10.49
2019-04-28T17:54:42.453Z,10.53
2019-04-28T17:57:14.469Z,10.61
2019-04-28T17:59:48.090Z,10.61
2019-04-28T18:02:37.997Z,10.61
2019-04-28T18:05:38.603Z,10.58
2019-04-28T18:08:20.797Z,10.57
2019-04-28T18:10:44.892Z,10.51
2019-04-28T18:13:17.022Z,10.47
2019-04-28T18:16:09.247Z,10.43
2019-04-28T18:18:47.240Z,10.37
2019-04-28T18:21:19.211Z,10.32
2019-04-28T18:23:51.280Z,10.29
2019-04-28T18:26:23.234Z,10.25
2019-04-28T18:28:55.256Z,10.19
2019-04-28T18:31:44.823Z,10.09
2019-04-28T18:34:38.539Z,10.01
2019-04-28T18:37:42.128Z,9.94
2019-04-28T18:40:33.169Z,9.86
2019-04-28T18:43:36.233Z,9.91
2019-04-28T18:46:08.311Z,9.99
2019-04-28T18:48:40.640Z,10.07
2019-04-28T18:51:12.626Z,10.07
2019-04-28T18:53:44.746Z,10.02
2019-04-28T18:56:16.713Z,10.00
2019-04-28T18:58:48.678Z,9.94
2019-04-28T19:01:39.917Z,9.86
2019-04-28T19:04:11.959Z,9.80
2019-04-28T19:06:43.948Z,9.85
2019-04-28T19:09:29.638Z,9.86
2019-04-28T19:12:11.360Z,9.92
2019-04-28T19:14:50.241Z,9.92
2019-04-28T19:17:31.903Z,9.81
2019-04-28T19:20:04.264Z,9.87
2019-04-28T19:22:44.925Z,9.86
2019-04-28T19:25:16.919Z,9.79
2019-04-28T19:27:48.993Z,9.74
2019-04-28T19:30:21.217Z,9.78
2019-04-28T19:32:53.194Z,9.84
2019-04-28T19:35:25.216Z,9.82
2019-04-28T19:37:57.166Z,9.76
2019-04-28T19:40:29.142Z,9.66
2019-04-28T19:43:01.244Z,9.69
2019-04-28T19:45:34.858Z,9.67
2019-04-28T19:48:06.888Z,9.70
2019-04-28T19:50:38.907Z,9.63
2019-04-28T19:53:10.936Z,9.59
2019-04-28T19:55:48.167Z,9.59
2019-04-28T19:58:27.167Z,9.62
2019-04-28T20:01:12.302Z,9.69
2019-04-28T20:03:44.352Z,9.73
2019-04-28T20:06:16.399Z,9.73
2019-04-28T20:08:48.415Z,9.67
2019-04-28T20:11:20.687Z,9.68
2019-04-28T20:13:52.678Z,9.74
2019-04-28T20:16:24.647Z,9.65
2019-04-28T20:18:56.635Z,9.62
2019-04-28T20:21:28.619Z,9.57
2019-04-28T20:24:00.962Z,9.60
2019-04-28T20:26:33.003Z,9.61
2019-04-28T20:29:05.065Z,9.65
2019-04-28T20:31:37.121Z,9.69
2019-04-28T20:34:09.131Z,9.60
2019-04-28T20:37:05.449Z,9.65
2019-04-28T20:39:37.530Z,9.67
2019-04-28T20:42:26.947Z,9.59
2019-04-28T20:44:58.960Z,9.64
2019-04-28T20:47:31.347Z,9.66
2019-04-28T20:50:03.313Z,9.61
2019-04-28T20:52:35.299Z,9.55
2019-04-28T20:55:07.430Z,9.55
2019-04-28T20:57:39.431Z,9.61
2019-04-28T21:00:11.406Z,9.67
2019-04-28T21:02:43.422Z,9.70
2019-04-28T21:05:15.393Z,9.73
2019-04-28T21:07:47.492Z,9.76
2019-04-28T21:10:19.461Z,9.80
2019-04-28T21:12:51.481Z,9.76
2019-04-28T21:15:23.458Z,9.75
2019-04-28T21:17:55.420Z,9.72
2019-04-28T21:20:27.395Z,9.72
2019-04-28T21:22:59.416Z,9.75
2019-04-28T21:25:31.398Z,9.74
2019-04-28T21:28:03.428Z,9.63
2019-04-28T21:30:35.409Z,9.61
2019-04-28T21:33:07.453Z,9.55
2019-04-28T21:35:40.158Z,9.57
2019-04-28T21:38:12.156Z,9.57
2019-04-28T21:40:44.453Z,9.56
2019-04-28T21:43:44.458Z,9.55
2019-04-28T21:46:41.192Z,9.54
2019-04-28T21:49:44.130Z,9.61
2019-04-28T21:52:16.121Z,9.56
2019-04-28T21:54:48.138Z,9.48
2019-04-28T21:57:20.149Z,9.50
2019-04-28T21:59:52.143Z,9.47
2019-04-28T22:02:24.268Z,9.45
2019-04-28T22:04:56.214Z,9.56
2019-04-28T22:07:28.264Z,9.53
2019-04-28T22:10:00.300Z,9.50
2019-04-28T22:12:32.275Z,9.57
2019-04-28T22:15:04.262Z,9.54
2019-04-28T22:17:36.253Z,9.50
2019-04-28T22:20:08.512Z,9.49
2019-04-28T22:22:40.500Z,9.56
2019-04-28T22:25:16.583Z,9.62
2019-04-28T22:27:48.678Z,9.62
2019-04-28T22:30:20.976Z,9.60
2019-04-28T22:32:52.987Z,9.61
2019-04-28T22:35:24.951Z,9.67
2019-04-28T22:37:56.891Z,9.69
2019-04-28T22:40:28.883Z,9.72
2019-04-28T22:43:01.178Z,9.67
2019-04-28T22:45:33.202Z,9.75
2019-04-28T22:48:07.373Z,9.77
2019-04-28T22:50:47.895Z,9.83
2019-04-28T22:53:22.855Z,9.84
2019-04-28T22:56:01.617Z,9.83
2019-04-28T22:58:51.087Z,9.94
2019-04-28T23:01:29.887Z,9.93
2019-04-28T23:04:11.217Z,9.96
2019-04-28T23:06:43.297Z,10.02
2019-04-28T23:09:17.354Z,10.11
2019-04-28T23:11:49.907Z,10.16
2019-04-28T23:14:21.883Z,10.19
2019-04-28T23:16:53.869Z,10.25
2019-04-28T23:19:28.055Z,10.31
2019-04-28T23:22:15.014Z,10.41
2019-04-28T23:24:59.017Z,10.43
2019-04-28T23:27:30.999Z,10.36
2019-04-28T23:30:03.173Z,10.35
2019-04-28T23:32:35.115Z,10.39
2019-04-28T23:35:07.660Z,10.39
2019-04-28T23:37:40.185Z,10.40
2019-04-28T23:40:13.643Z,10.38
2019-04-28T23:42:52.211Z,10.41
2019-04-28T23:45:24.295Z,10.37
2019-04-28T23:47:56.279Z,10.35
2019-04-28T23:50:37.724Z,10.21
2019-04-28T23:53:14.011Z,10.16
2019-04-28T23:55:45.987Z,10.19
2019-04-28T23:58:18.033Z,10.20
